createdAt,value
2023-08-17T00:02:08.914Z,19.86
2023-08-17T00:04:54.194Z,19.86
2023-08-17T00:07:39.585Z,19.82
2023-08-17T00:10:25.067Z,19.82
2023-08-17T00:13:10.425Z,19.81
2023-08-17T00:15:55.906Z,19.81
2023-08-17T00:18:41.474Z,19.83
2023-08-17T00:21:26.758Z,19.82
2023-08-17T00:24:12.474Z,19.80
2023-08-17T00:26:57.484Z,19.81
2023-08-17T00:29:43.029Z,19.83
2023-08-17T00:32:28.346Z,19.82
2023-08-17T00:35:14.157Z,19.81
2023-08-17T00:38:03.690Z,19.78
2023-08-17T00:40:49.031Z,19.78
2023-08-17T00:43:34.627Z,19.75
2023-08-17T00:46:21.448Z,19.74
2023-08-17T00:49:07.875Z,19.75
2023-08-17T00:51:53.165Z,19.75
2023-08-17T00:54:38.707Z,19.75
2023-08-17T00:57:24.762Z,19.73
2023-08-17T01:00:12.836Z,19.74
2023-08-17T01:02:58.334Z,19.75
2023-08-17T01:05:44.957Z,19.73
2023-08-17T01:08:31.145Z,19.69
2023-08-17T01:11:25.572Z,19.34
2023-08-17T01:14:32.094Z,19.27
2023-08-17T01:17:23.494Z,19.24
2023-08-17T01:20:13.393Z,19.24
2023-08-17T01:23:06.185Z,19.22
2023-08-17T01:25:51.142Z,19.21
2023-08-17T01:28:36.516Z,19.20
2023-08-17T01:31:32.996Z,19.53
2023-08-17T01:34:21.541Z,19.60
2023-08-17T01:37:11.463Z,19.63
2023-08-17T01:39:59.020Z,19.62
2023-08-17T01:42:44.962Z,19.64
2023-08-17T01:45:30.654Z,19.28
2023-08-17T01:48:15.802Z,19.23
2023-08-17T01:51:01.217Z,19.21
2023-08-17T01:53:47.241Z,19.19
2023-08-17T01:56:32.206Z,19.17
2023-08-17T01:59:17.686Z,19.17
2023-08-17T02:02:03.026Z,19.16
2023-08-17T02:04:48.395Z,19.12
2023-08-17T02:07:33.803Z,19.08
2023-08-17T02:10:19.227Z,19.27
2023-08-17T02:13:17.293Z,19.36
2023-08-17T02:16:03.374Z,19.47
2023-08-17T02:18:48.621Z,19.42
2023-08-17T02:21:33.858Z,19.55
2023-08-17T02:24:19.212Z,19.52
2023-08-17T02:27:04.738Z,19.54
2023-08-17T02:29:50.148Z,19.55
2023-08-17T02:32:35.367Z,19.56
2023-08-17T02:35:20.597Z,19.56
2023-08-17T02:38:06.009Z,19.56
2023-08-17T02:40:51.551Z,19.55
2023-08-17T02:43:37.009Z,19.55
2023-08-17T02:46:22.504Z,19.54
2023-08-17T02:49:07.835Z,19.52
2023-08-17T02:51:53.230Z,19.51
2023-08-17T02:54:38.530Z,19.51
2023-08-17T02:57:24.231Z,19.50
2023-08-17T03:00:10.462Z,19.50
2023-08-17T03:02:55.832Z,19.49
2023-08-17T03:05:41.414Z,19.48
2023-08-17T03:08:26.638Z,19.47
2023-08-17T03:11:12.234Z,19.49
2023-08-17T03:14:01.363Z,19.48
2023-08-17T03:16:46.533Z,19.47
2023-08-17T03:19:32.002Z,19.45
2023-08-17T03:22:17.348Z,19.44
2023-08-17T03:25:03.852Z,19.45
2023-08-17T03:27:49.392Z,19.44
2023-08-17T03:30:34.940Z,19.42
2023-08-17T03:33:20.337Z,19.42
2023-08-17T03:36:05.897Z,19.41
2023-08-17T03:38:51.025Z,19.39
2023-08-17T03:41:37.858Z,19.38
2023-08-17T03:44:22.833Z,19.37
2023-08-17T03:47:08.346Z,19.39
2023-08-17T03:49:53.767Z,19.38
2023-08-17T03:52:39.166Z,19.36
2023-08-17T03:55:24.556Z,19.37
2023-08-17T03:58:09.924Z,19.35
2023-08-17T04:00:55.480Z,19.34
2023-08-17T04:03:40.936Z,19.34
2023-08-17T04:06:26.453Z,19.31
2023-08-17T04:09:11.686Z,19.21
2023-08-17T04:11:58.591Z,19.30
2023-08-17T04:14:43.994Z,19.31
2023-08-17T04:17:29.674Z,19.30
2023-08-17T04:20:15.317Z,19.31
2023-08-17T04:23:00.729Z,19.31
2023-08-17T04:25:47.866Z,19.31
2023-08-17T04:28:33.068Z,19.32
2023-08-17T04:31:18.626Z,19.30
2023-08-17T04:34:04.236Z,19.30
2023-08-17T04:36:49.696Z,19.27
2023-08-17T04:39:34.897Z,19.28
2023-08-17T04:42:21.158Z,19.28
2023-08-17T04:45:06.719Z,19.31
2023-08-17T04:47:52.267Z,19.28
2023-08-17T04:50:37.477Z,19.29
2023-08-17T04:53:22.785Z,19.28
2023-08-17T04:56:08.228Z,19.28
2023-08-17T04:58:53.648Z,19.28
2023-08-17T05:01:42.238Z,19.30
2023-08-17T05:04:28.305Z,19.32
2023-08-17T05:07:13.534Z,19.34
2023-08-17T05:09:59.315Z,19.35
2023-08-17T05:12:44.906Z,19.33
2023-08-17T05:15:29.987Z,19.28
2023-08-17T05:18:15.769Z,19.33
2023-08-17T05:21:01.497Z,19.35
2023-08-17T05:23:46.654Z,19.37
2023-08-17T05:26:32.104Z,19.42
2023-08-17T05:29:17.349Z,19.45
2023-08-17T05:32:02.723Z,19.49
2023-08-17T05:34:48.893Z,19.49
2023-08-17T05:37:34.223Z,19.53
2023-08-17T05:40:20.149Z,19.56
2023-08-17T05:43:05.272Z,19.60
2023-08-17T05:45:51.077Z,19.60
2023-08-17T05:48:36.337Z,19.63
2023-08-17T05:51:21.792Z,19.68
2023-08-17T05:54:07.128Z,19.67
2023-08-17T05:56:52.314Z,19.68
2023-08-17T05:59:37.603Z,19.66
2023-08-17T06:02:22.720Z,19.70
2023-08-17T06:05:10.227Z,19.68
2023-08-17T06:07:56.568Z,19.72
2023-08-17T06:10:41.601Z,19.79
2023-08-17T06:13:27.166Z,19.80
2023-08-17T06:16:13.006Z,19.80
2023-08-17T06:18:58.454Z,19.85
2023-08-17T06:21:43.521Z,19.87
2023-08-17T06:24:28.942Z,19.91
2023-08-17T06:27:17.426Z,19.93
2023-08-17T06:30:04.258Z,19.98
2023-08-17T06:32:49.502Z,20.04
2023-08-17T06:35:34.746Z,20.13
2023-08-17T06:38:19.921Z,20.19
2023-08-17T06:41:05.390Z,20.25
2023-08-17T06:43:50.644Z,20.33
2023-08-17T06:46:36.311Z,20.39
2023-08-17T06:49:21.771Z,20.48
2023-08-17T06:52:07.170Z,20.59
2023-08-17T06:54:52.661Z,20.66
2023-08-17T06:57:38.599Z,20.70
2023-08-17T07:00:24.064Z,20.77
2023-08-17T07:03:09.538Z,20.87
2023-08-17T07:05:55.032Z,20.97
2023-08-17T07:08:40.336Z,21.05
2023-08-17T07:11:25.542Z,21.14
2023-08-17T07:14:11.016Z,21.27
2023-08-17T07:16:56.490Z,21.33
2023-08-17T07:22:30.696Z,21.48
2023-08-17T07:25:15.948Z,21.58
2023-08-17T07:28:01.483Z,21.66
2023-08-17T07:30:46.934Z,21.77
2023-08-17T07:33:32.182Z,21.87
2023-08-17T07:36:17.632Z,21.93
2023-08-17T07:39:03.077Z,21.96
2023-08-17T07:41:48.501Z,22.01
2023-08-17T07:44:34.364Z,22.06
2023-08-17T07:47:19.947Z,22.13
2023-08-17T07:50:06.823Z,22.21
2023-08-17T07:52:52.366Z,22.31
2023-08-17T07:55:37.648Z,22.40
2023-08-17T07:58:23.231Z,22.50
2023-08-17T08:01:08.523Z,22.62
2023-08-17T08:03:53.931Z,22.75
2023-08-17T08:06:39.200Z,22.86
2023-08-17T08:09:24.693Z,22.95
2023-08-17T08:12:10.225Z,23.01
2023-08-17T08:14:55.469Z,23.07
2023-08-17T08:17:41.798Z,23.14
2023-08-17T08:20:27.348Z,23.20
2023-08-17T08:23:12.761Z,23.34
2023-08-17T08:25:59.320Z,23.51
2023-08-17T08:28:44.776Z,23.67
2023-08-17T08:31:29.912Z,23.84
2023-08-17T08:34:15.150Z,24.06
2023-08-17T08:37:00.650Z,24.25
2023-08-17T08:39:51.361Z,24.33
2023-08-17T08:42:36.465Z,24.51
2023-08-17T08:45:24.133Z,24.78
2023-08-17T08:48:11.132Z,24.87
2023-08-17T08:50:57.679Z,25.02
2023-08-17T08:53:46.562Z,25.27
2023-08-17T08:56:39.248Z,25.46
2023-08-17T08:59:26.218Z,25.47
2023-08-17T09:02:20.668Z,25.50
2023-08-17T09:05:12.188Z,25.46
2023-08-17T09:07:59.179Z,25.40
2023-08-17T09:10:44.646Z,25.42
2023-08-17T09:13:30.104Z,25.37
2023-08-17T09:16:15.647Z,25.33
2023-08-17T09:19:01.135Z,25.30
2023-08-17T09:21:50.864Z,25.31
2023-08-17T09:24:37.622Z,25.29
2023-08-17T09:27:22.778Z,25.43
2023-08-17T09:30:10.983Z,25.56
2023-08-17T09:32:56.144Z,25.77
2023-08-17T09:35:43.545Z,25.86
2023-08-17T09:38:29.630Z,25.92
2023-08-17T09:41:15.099Z,26.05
2023-08-17T09:44:01.798Z,26.09
2023-08-17T09:46:47.605Z,26.13
2023-08-17T09:49:36.625Z,26.17
2023-08-17T09:52:25.239Z,26.28
2023-08-17T09:55:12.983Z,26.42
2023-08-17T09:57:58.929Z,26.47
2023-08-17T10:00:50.543Z,26.49
2023-08-17T10:03:40.244Z,26.54
2023-08-17T10:06:28.075Z,26.58
2023-08-17T10:09:19.017Z,26.60
2023-08-17T10:12:11.153Z,26.62
2023-08-17T10:15:20.173Z,26.64
2023-08-17T10:18:15.796Z,26.63
2023-08-17T10:21:14.264Z,26.61
2023-08-17T10:23:59.497Z,26.62
2023-08-17T10:26:46.784Z,26.62
2023-08-17T10:29:32.942Z,26.63
2023-08-17T10:32:18.463Z,26.69
2023-08-17T10:35:05.654Z,26.81
2023-08-17T10:37:51.502Z,26.84
2023-08-17T10:40:38.772Z,26.87
2023-08-17T10:43:34.298Z,26.88
2023-08-17T10:46:19.549Z,26.89
2023-08-17T10:49:08.811Z,26.79
2023-08-17T10:52:05.117Z,26.62
2023-08-17T10:54:50.372Z,26.50
2023-08-17T10:57:43.398Z,26.41
2023-08-17T11:00:35.181Z,26.33
2023-08-17T11:03:21.716Z,26.27
2023-08-17T11:06:19.640Z,26.15
2023-08-17T11:09:09.085Z,25.89
2023-08-17T11:11:56.016Z,25.66
2023-08-17T11:14:41.405Z,25.47
2023-08-17T11:17:27.133Z,25.34
2023-08-17T11:20:15.073Z,25.25
2023-08-17T11:23:01.039Z,25.14
2023-08-17T11:25:46.667Z,25.04
2023-08-17T11:28:42.509Z,24.90
2023-08-17T11:31:28.901Z,24.91
2023-08-17T11:34:16.432Z,24.78
2023-08-17T11:37:05.269Z,24.69
2023-08-17T11:39:50.685Z,24.35
2023-08-17T11:42:37.717Z,24.23
2023-08-17T11:45:27.658Z,24.04
2023-08-17T11:48:13.590Z,24.15
2023-08-17T11:50:59.397Z,24.09
2023-08-17T11:53:49.516Z,23.84
2023-08-17T11:56:35.571Z,23.81
2023-08-17T11:59:20.864Z,23.69
2023-08-17T12:02:06.698Z,23.83
2023-08-17T12:04:52.577Z,23.83
2023-08-17T12:07:38.120Z,23.93
2023-08-17T12:10:26.117Z,24.05
2023-08-17T12:13:15.927Z,23.93
2023-08-17T12:16:01.625Z,23.85
2023-08-17T12:18:51.625Z,23.82
2023-08-17T12:21:36.901Z,23.62
2023-08-17T12:24:25.333Z,23.62
2023-08-17T12:27:11.354Z,23.78
2023-08-17T12:29:56.659Z,23.87
2023-08-17T12:32:42.208Z,23.86
2023-08-17T12:35:27.935Z,23.82
2023-08-17T12:38:12.931Z,23.63
2023-08-17T12:40:58.438Z,23.70
2023-08-17T12:43:43.793Z,23.74
2023-08-17T12:46:32.586Z,23.82
2023-08-17T12:49:18.571Z,23.86
2023-08-17T12:52:04.053Z,23.93
2023-08-17T12:54:52.873Z,23.78
2023-08-17T12:57:38.529Z,23.61
2023-08-17T13:00:23.979Z,23.61
2023-08-17T13:03:10.103Z,23.66
2023-08-17T13:05:56.410Z,23.70
2023-08-17T13:08:41.516Z,23.73
2023-08-17T13:11:27.042Z,23.82
2023-08-17T13:14:13.411Z,23.88
2023-08-17T13:16:58.807Z,23.86
2023-08-17T13:19:44.346Z,23.88
2023-08-17T13:22:29.879Z,23.80
2023-08-17T13:25:15.401Z,23.76
2023-08-17T13:28:00.769Z,23.74
2023-08-17T13:30:46.112Z,23.70
2023-08-17T13:33:31.884Z,23.49
2023-08-17T13:36:17.509Z,23.41
2023-08-17T13:39:03.010Z,23.42
2023-08-17T13:41:48.430Z,23.34
2023-08-17T13:44:33.926Z,23.44
2023-08-17T13:47:19.362Z,23.53
2023-08-17T13:50:05.244Z,23.57
2023-08-17T13:52:50.687Z,23.55
2023-08-17T13:55:36.080Z,23.61
2023-08-17T13:58:21.337Z,23.62
2023-08-17T14:01:06.909Z,23.50
2023-08-17T14:03:52.356Z,23.52
2023-08-17T14:06:37.784Z,23.48
2023-08-17T14:09:23.303Z,23.53
2023-08-17T14:12:08.582Z,23.50
2023-08-17T14:14:53.779Z,23.50
2023-08-17T14:17:39.241Z,23.43
2023-08-17T14:20:24.887Z,23.34
2023-08-17T14:23:10.284Z,23.38
2023-08-17T14:25:55.839Z,23.45
2023-08-17T14:28:44.461Z,23.46
2023-08-17T14:31:29.940Z,23.54
2023-08-17T14:34:16.587Z,23.61
2023-08-17T14:37:01.894Z,23.65
2023-08-17T14:39:47.782Z,23.72
2023-08-17T14:42:33.141Z,23.75
2023-08-17T14:45:18.350Z,23.70
2023-08-17T14:48:04.753Z,23.68
2023-08-17T14:50:49.901Z,23.75
2023-08-17T14:53:39.225Z,23.72
2023-08-17T14:56:24.993Z,23.73
2023-08-17T14:59:11.082Z,23.75
2023-08-17T15:01:57.615Z,23.70
2023-08-17T15:04:42.956Z,23.73
2023-08-17T15:07:29.267Z,23.59
2023-08-17T15:10:14.900Z,23.57
2023-08-17T15:13:00.252Z,23.52
2023-08-17T15:15:46.281Z,23.56
2023-08-17T15:18:31.612Z,23.64
2023-08-17T15:21:17.166Z,23.68
2023-08-17T15:24:03.438Z,23.65
2023-08-17T15:26:48.892Z,23.78
2023-08-17T15:29:34.204Z,23.89
2023-08-17T15:32:19.714Z,24.08
2023-08-17T15:35:05.491Z,24.20
2023-08-17T15:37:51.074Z,24.16
2023-08-17T15:40:36.265Z,24.09
2023-08-17T15:43:21.519Z,24.11
2023-08-17T15:46:07.137Z,24.15
2023-08-17T15:48:52.387Z,24.17
2023-08-17T15:51:37.957Z,24.15
2023-08-17T15:54:35.145Z,24.08
2023-08-17T15:57:22.472Z,24.07
2023-08-17T16:00:08.688Z,24.06
2023-08-17T16:02:53.961Z,24.00
2023-08-17T16:05:39.125Z,23.87
2023-08-17T16:08:33.612Z,23.74
2023-08-17T16:11:27.281Z,23.61
2023-08-17T16:14:12.857Z,23.62
2023-08-17T16:16:58.347Z,23.58
2023-08-17T16:19:44.153Z,23.47
2023-08-17T16:22:29.350Z,23.49
2023-08-17T16:25:14.701Z,23.53
2023-08-17T16:28:00.493Z,23.60
2023-08-17T16:30:45.891Z,23.65
2023-08-17T16:33:30.947Z,23.66
2023-08-17T16:36:16.296Z,23.66
2023-08-17T16:39:01.701Z,23.63
2023-08-17T16:41:49.867Z,23.70
2023-08-17T16:44:35.359Z,23.75
2023-08-17T16:47:22.783Z,23.78
2023-08-17T16:50:08.529Z,23.80
2023-08-17T16:52:53.631Z,23.74
2023-08-17T16:55:39.044Z,23.73
2023-08-17T16:58:24.396Z,23.68
2023-08-17T17:01:15.058Z,23.67
2023-08-17T17:04:00.851Z,23.61
2023-08-17T17:06:46.279Z,23.56
2023-08-17T17:09:31.578Z,23.50
2023-08-17T17:12:17.052Z,23.48
2023-08-17T17:15:02.356Z,23.46
2023-08-17T17:17:48.019Z,23.39
2023-08-17T17:20:34.656Z,23.34
2023-08-17T17:23:19.994Z,23.27
2023-08-17T17:26:08.648Z,23.25
2023-08-17T17:28:54.023Z,23.20
2023-08-17T17:31:39.116Z,23.12
2023-08-17T17:34:24.564Z,23.09
2023-08-17T17:37:09.832Z,23.04
2023-08-17T17:39:55.286Z,23.03
2023-08-17T17:42:40.457Z,22.96
2023-08-17T17:45:25.905Z,22.92
2023-08-17T17:48:12.530Z,22.89
2023-08-17T17:50:57.906Z,22.83
2023-08-17T17:53:43.037Z,22.79
2023-08-17T17:56:39.464Z,22.78
2023-08-17T17:59:24.919Z,22.74
2023-08-17T18:02:10.269Z,22.69
2023-08-17T18:04:55.542Z,22.63
2023-08-17T18:07:40.777Z,22.58
2023-08-17T18:10:26.100Z,22.55
2023-08-17T18:13:11.671Z,22.52
2023-08-17T18:15:57.078Z,22.37
2023-08-17T18:18:42.179Z,22.35
2023-08-17T18:21:31.398Z,22.34
2023-08-17T18:24:16.636Z,22.32
2023-08-17T18:27:02.273Z,22.29
2023-08-17T18:29:47.195Z,22.29
2023-08-17T18:32:32.902Z,22.28
2023-08-17T18:35:20.052Z,22.26
2023-08-17T18:38:06.966Z,22.24
2023-08-17T18:40:54.110Z,22.27
2023-08-17T18:43:40.117Z,22.18
2023-08-17T18:46:25.451Z,22.12
2023-08-17T18:49:10.860Z,22.06
2023-08-17T18:51:55.834Z,22.02
2023-08-17T18:54:58.258Z,21.99
2023-08-17T18:57:43.515Z,21.95
2023-08-17T19:00:29.105Z,21.91
2023-08-17T19:03:14.553Z,21.88
2023-08-17T19:05:59.925Z,21.85
2023-08-17T19:08:45.351Z,21.84
2023-08-17T19:11:30.745Z,21.80
2023-08-17T19:14:16.043Z,21.79
2023-08-17T19:17:01.586Z,21.75
2023-08-17T19:19:46.976Z,21.70
2023-08-17T19:22:32.371Z,21.66
2023-08-17T19:25:17.907Z,21.67
2023-08-17T19:28:03.490Z,21.64
2023-08-17T19:30:49.005Z,21.62
2023-08-17T19:33:34.252Z,21.57
2023-08-17T19:36:19.763Z,21.56
2023-08-17T19:39:05.830Z,21.52
2023-08-17T19:41:51.213Z,21.51
2023-08-17T19:44:36.750Z,21.47
2023-08-17T19:47:22.309Z,21.45
2023-08-17T19:50:08.260Z,21.38
2023-08-17T19:52:53.775Z,21.37
2023-08-17T19:55:39.176Z,21.35
2023-08-17T19:58:24.934Z,21.33
2023-08-17T20:01:13.133Z,21.30
2023-08-17T20:03:58.688Z,21.28
2023-08-17T20:09:29.981Z,21.26
2023-08-17T20:12:15.253Z,21.24
2023-08-17T20:15:00.640Z,21.23
2023-08-17T20:17:45.976Z,21.21
2023-08-17T20:20:31.470Z,21.19
2023-08-17T20:23:16.793Z,21.15
2023-08-17T20:26:02.331Z,21.11
2023-08-17T20:28:47.675Z,21.06
2023-08-17T20:31:33.322Z,21.02
2023-08-17T20:34:18.449Z,20.97
2023-08-17T20:37:03.775Z,20.93
2023-08-17T20:39:49.136Z,20.90
2023-08-17T20:42:34.467Z,20.92
2023-08-17T20:45:20.203Z,20.91
2023-08-17T20:48:05.393Z,20.87
2023-08-17T20:50:52.243Z,20.87
2023-08-17T20:53:37.891Z,20.82
2023-08-17T20:56:23.263Z,20.81
2023-08-17T20:59:08.604Z,20.78
2023-08-17T21:01:54.280Z,20.75
2023-08-17T21:04:39.722Z,20.72
2023-08-17T21:07:26.892Z,20.72
2023-08-17T21:10:13.626Z,20.67
2023-08-17T21:12:59.573Z,20.64
2023-08-17T21:15:44.954Z,20.60
2023-08-17T21:18:30.276Z,20.58
2023-08-17T21:21:15.796Z,20.55
2023-08-17T21:24:01.078Z,20.52
2023-08-17T21:26:46.372Z,20.50
2023-08-17T21:29:31.709Z,20.47
2023-08-17T21:32:17.033Z,20.48
2023-08-17T21:35:02.586Z,20.46
2023-08-17T21:37:47.882Z,20.42
2023-08-17T21:40:33.705Z,20.41
2023-08-17T21:43:18.716Z,20.39
2023-08-17T21:46:04.162Z,20.38
2023-08-17T21:48:49.595Z,20.36
2023-08-17T21:51:34.917Z,20.35
2023-08-17T21:54:20.402Z,20.35
2023-08-17T21:57:05.744Z,20.35
2023-08-17T21:59:52.130Z,20.34
2023-08-17T22:02:37.474Z,20.33
2023-08-17T22:05:22.819Z,20.34
2023-08-17T22:08:08.310Z,20.34
2023-08-17T22:10:53.842Z,20.34
2023-08-17T22:13:39.175Z,20.31
2023-08-17T22:16:25.430Z,20.29
2023-08-17T22:19:10.673Z,20.28
2023-08-17T22:21:56.160Z,20.26
2023-08-17T22:24:51.558Z,20.24
2023-08-17T22:27:37.278Z,20.24
2023-08-17T22:30:22.712Z,20.22
2023-08-17T22:33:07.943Z,20.22
2023-08-17T22:35:53.269Z,20.22
2023-08-17T22:38:38.808Z,20.22
2023-08-17T22:41:24.670Z,20.20
2023-08-17T22:44:10.213Z,20.21
2023-08-17T22:46:55.649Z,20.21
2023-08-17T22:49:40.977Z,20.21
2023-08-17T22:52:26.402Z,20.18
2023-08-17T22:55:11.640Z,20.19
2023-08-17T22:57:56.904Z,20.18
2023-08-17T23:00:42.537Z,20.19
2023-08-17T23:03:27.855Z,20.20
2023-08-17T23:06:13.289Z,20.18
2023-08-17T23:08:58.651Z,20.16
2023-08-17T23:11:44.022Z,20.15
2023-08-17T23:14:31.010Z,20.16
2023-08-17T23:17:16.265Z,20.15
2023-08-17T23:20:01.713Z,20.14
2023-08-17T23:22:47.723Z,20.15
2023-08-17T23:25:33.034Z,20.14
2023-08-17T23:28:18.347Z,20.12
2023-08-17T23:31:03.772Z,20.10
2023-08-17T23:33:49.306Z,20.09
2023-08-17T23:36:36.378Z,20.09
2023-08-17T23:39:21.844Z,20.08
2023-08-17T23:42:07.493Z,20.07
2023-08-17T23:44:52.451Z,20.05
2023-08-17T23:47:38.043Z,20.05
2023-08-17T23:50:23.568Z,20.04
2023-08-17T23:53:09.053Z,20.02
2023-08-17T23:55:54.427Z,20.00
2023-08-17T23:58:39.810Z,19.99
